<?xml version='1.0' encoding='UTF-8'?><gpx version="1.1" creator="JPX - https://github.com/jenetics/jpx" xmlns="http://www.topografix.com/GPX/1/1"><trk><trkseg><trkpt lat="46.97937624446815" lon="-0.16667832209782169"><ele>83.0</ele><time>2026-04-14T17:20:11Z</time></trkpt><trkpt lat="46.97937290641969" lon="-0.16655166581010686"><ele>83.0</ele><time>2026-04-14T17:20:12Z</time></trkpt><trkpt lat="46.97932378485013" lon="-0.16634969732361837"><ele>83.0</ele><time>2026-04-14T17:20:14Z</time></trkpt><trkpt lat="46.979290347740644" lon="-0.16622275708574588"><ele>83.0</ele><time>2026-04-14T17:20:15Z</time></trkpt><trkpt lat="46.97925164401437" lon="-0.16607739464426194"><ele>83.0</ele><time>2026-04-14T17:20:16Z</time></trkpt><trkpt lat="46.97920140229385" lon="-0.16590079413983033"><ele>83.0</ele><time>2026-04-14T17:20:17Z</time></trkpt><trkpt lat="46.97917507619595" lon="-0.16578848493960918"><ele>83.0</ele><time>2026-04-14T17:20:18Z</time></trkpt><trkpt lat="46.97915269158436" lon="-0.16568140825065739"><ele>83.0</ele><time>2026-04-14T17:20:19Z</time></trkpt><trkpt lat="46.97912601972606" lon="-0.1655767261609754"><ele>83.0</ele><time>2026-04-14T17:20:20Z</time></trkpt><trkpt lat="46.97910534045873" lon="-0.1654659981369519"><ele>83.0</ele><time>2026-04-14T17:20:21Z</time></trkpt><trkpt lat="46.97908362824272" lon="-0.165350826805535"><ele>83.0</ele><time>2026-04-14T17:20:22Z</time></trkpt><trkpt lat="46.979067503168636" lon="-0.16521494600922787"><ele>82.83333333333334</ele><time>2026-04-14T17:20:23Z</time></trkpt><trkpt lat="46.97905526890571" lon="-0.16508952273019484"><ele>82.66666666666667</ele><time>2026-04-14T17:20:24Z</time></trkpt><trkpt lat="46.97904101804244" lon="-0.1649580669663846"><ele>82.5</ele><time>2026-04-14T17:20:25Z</time></trkpt><trkpt lat="46.979012980920295" lon="-0.1648591203581946"><ele>82.33333333333333</ele><time>2026-04-14T17:20:26Z</time></trkpt><trkpt lat="46.978992692063564" lon="-0.16475237580632845"><ele>82.16666666666666</ele><time>2026-04-14T17:20:26.999Z</time></trkpt><trkpt lat="46.97897148342578" lon="-0.16464981662100392"><ele>82.0</ele><time>2026-04-14T17:20:27.999Z</time></trkpt><trkpt lat="46.97895324130782" lon="-0.16452659287441676"><ele>81.83333333333333</ele><time>2026-04-14T17:20:28.999Z</time></trkpt><trkpt lat="46.97893713568708" lon="-0.1644090139892449"><ele>81.66666666666666</ele><time>2026-04-14T17:20:29.999Z</time></trkpt><trkpt lat="46.978918177919724" lon="-0.16427204917813223"><ele>81.5</ele><time>2026-04-14T17:20:30.999Z</time></trkpt><trkpt lat="46.97889365332305" lon="-0.16413875115555687"><ele>81.33333333333333</ele><time>2026-04-14T17:20:31.999Z</time></trkpt><trkpt lat="46.97887061481828" lon="-0.1640145929424458"><ele>81.16666666666667</ele><time>2026-04-14T17:20:32.999Z</time></trkpt><trkpt lat="46.97885231623667" lon="-0.16388821889717017"><ele>81.0</ele><time>2026-04-14T17:20:33.999Z</time></trkpt><trkpt lat="46.97883759601497" lon="-0.16376801596794952"><ele>81.0</ele><time>2026-04-14T17:20:34.999Z</time></trkpt><trkpt lat="46.97881034766881" lon="-0.16364468266196616"><ele>81.0</ele><time>2026-04-14T17:20:35.999Z</time></trkpt><trkpt lat="46.978793004841904" lon="-0.1635252847449335"><ele>81.0</ele><time>2026-04-14T17:20:36.999Z</time></trkpt><trkpt lat="46.97877474092797" lon="-0.16340083315581583"><ele>81.0</ele><time>2026-04-14T17:20:37.999Z</time></trkpt><trkpt lat="46.97875643469574" lon="-0.16328863278278416"><ele>81.0</ele><time>2026-04-14T17:20:38.999Z</time></trkpt><trkpt lat="46.97873646737569" lon="-0.16316622827027963"><ele>81.0</ele><time>2026-04-14T17:20:39.999Z</time></trkpt><trkpt lat="46.97872185248147" lon="-0.16304518378317898"><ele>80.83333333333333</ele><time>2026-04-14T17:20:41Z</time></trkpt><trkpt lat="46.97870192483544" lon="-0.16292104889282405"><ele>80.66666666666667</ele><time>2026-04-14T17:20:42Z</time></trkpt><trkpt lat="46.9786924358583" lon="-0.16279245238895104"><ele>80.5</ele><time>2026-04-14T17:20:43Z</time></trkpt><trkpt lat="46.978674021607425" lon="-0.16268212686532504"><ele>80.33333333333334</ele><time>2026-04-14T17:20:44Z</time></trkpt><trkpt lat="46.97865787073646" lon="-0.16257297907765395"><ele>80.16666666666667</ele><time>2026-04-14T17:20:45Z</time></trkpt><trkpt lat="46.978639200726064" lon="-0.16245772865428723"><ele>80.0</ele><time>2026-04-14T17:20:46Z</time></trkpt><trkpt lat="46.978629725057935" lon="-0.16235048417465617"><ele>79.83333333333334</ele><time>2026-04-14T17:20:47Z</time></trkpt><trkpt lat="46.978616930787084" lon="-0.1622415050437854"><ele>79.66666666666667</ele><time>2026-04-14T17:20:48Z</time></trkpt><trkpt lat="46.978617190893196" lon="-0.16213239513559483"><ele>79.5</ele><time>2026-04-14T17:20:49Z</time></trkpt><trkpt lat="46.978597288147064" lon="-0.16203826158261816"><ele>79.33333333333333</ele><time>2026-04-14T17:20:50Z</time></trkpt><trkpt lat="46.97856660335487" lon="-0.16194423898645818"><ele>79.16666666666666</ele><time>2026-04-14T17:20:51Z</time></trkpt><trkpt lat="46.97855898313971" lon="-0.16181510282839884"><ele>79.0</ele><time>2026-04-14T17:20:53Z</time></trkpt><trkpt lat="46.9785488742924" lon="-0.16169855340012662"><ele>79.0</ele><time>2026-04-14T17:20:56Z</time></trkpt><trkpt lat="46.97853486855306" lon="-0.1615616137126621"><ele>79.0</ele><time>2026-04-14T17:20:58Z</time></trkpt><trkpt lat="46.978522157568094" lon="-0.16144348764765784"><ele>79.0</ele><time>2026-04-14T17:21:00Z</time></trkpt><trkpt lat="46.97850306936049" lon="-0.16132539592514314"><ele>79.0</ele><time>2026-04-14T17:21:03Z</time></trkpt><trkpt lat="46.978483653261925" lon="-0.16120227737559403"><ele>79.0</ele><time>2026-04-14T17:21:06Z</time></trkpt><trkpt lat="46.97846161599353" lon="-0.16106329489600837"><ele>79.0</ele><time>2026-04-14T17:21:08Z</time></trkpt><trkpt lat="46.97843879294973" lon="-0.1609246328832575"><ele>79.0</ele><time>2026-04-14T17:21:10Z</time></trkpt><trkpt lat="46.97841203084037" lon="-0.16073549912044346"><ele>79.0</ele><time>2026-04-14T17:21:12Z</time></trkpt><trkpt lat="46.978383612846145" lon="-0.16058211040897993"><ele>79.0</ele><time>2026-04-14T17:21:14Z</time></trkpt><trkpt lat="46.97835897390834" lon="-0.16041556485904782"><ele>79.0</ele><time>2026-04-14T17:21:16Z</time></trkpt><trkpt lat="46.978342517325544" lon="-0.16031968466268978"><ele>79.0</ele><time>2026-04-14T17:21:17Z</time></trkpt><trkpt lat="46.978332850812514" lon="-0.16021240811450818"><ele>79.00000000000001</ele><time>2026-04-14T17:21:18Z</time></trkpt><trkpt lat="46.97831456315162" lon="-0.16011236160587017"><ele>79.0</ele><time>2026-04-14T17:21:19Z</time></trkpt><trkpt lat="46.97829703857058" lon="-0.160013156352764"><ele>79.0</ele><time>2026-04-14T17:21:20Z</time></trkpt><trkpt lat="46.97828642516063" lon="-0.15991794336028908"><ele>79.0</ele><time>2026-04-14T17:21:21Z</time></trkpt><trkpt lat="46.978276048166336" lon="-0.15982105065581143"><ele>79.0</ele><time>2026-04-14T17:21:22Z</time></trkpt><trkpt lat="46.97826152290762" lon="-0.15972249413786735"><ele>79.00000000000001</ele><time>2026-04-14T17:21:23Z</time></trkpt><trkpt lat="46.97824466529349" lon="-0.15960575715252814"><ele>79.0</ele><time>2026-04-14T17:21:24Z</time></trkpt><trkpt lat="46.97822546742047" lon="-0.15947118079553396"><ele>79.0</ele><time>2026-04-14T17:21:25Z</time></trkpt><trkpt lat="46.978209062837" lon="-0.159354997898786"><ele>79.0</ele><time>2026-04-14T17:21:26Z</time></trkpt><trkpt lat="46.978189834548665" lon="-0.15922299401487433"><ele>79.0</ele><time>2026-04-14T17:21:27Z</time></trkpt><trkpt lat="46.97817140201624" lon="-0.1590863405946579"><ele>79.0</ele><time>2026-04-14T17:21:28Z</time></trkpt><trkpt lat="46.978151836114954" lon="-0.15895707020467886"><ele>79.0</ele><time>2026-04-14T17:21:29Z</time></trkpt><trkpt lat="46.97813644342742" lon="-0.15882755037470264"><ele>79.0</ele><time>2026-04-14T17:21:30Z</time></trkpt><trkpt lat="46.978119250750204" lon="-0.15870973787343365"><ele>79.0</ele><time>2026-04-14T17:21:31Z</time></trkpt><trkpt lat="46.978101865753544" lon="-0.15858771577017372"><ele>79.0</ele><time>2026-04-14T17:21:32Z</time></trkpt><trkpt lat="46.97808248024991" lon="-0.15845827601100895"><ele>79.0</ele><time>2026-04-14T17:21:33Z</time></trkpt><trkpt lat="46.97806873048527" lon="-0.15835569863888924"><ele>79.0</ele><time>2026-04-14T17:21:34Z</time></trkpt><trkpt lat="46.978056693751384" lon="-0.1582355778234604"><ele>79.0</ele><time>2026-04-14T17:21:35Z</time></trkpt><trkpt lat="46.97804360227765" lon="-0.15813707053556095"><ele>79.0</ele><time>2026-04-14T17:21:36Z</time></trkpt><trkpt lat="46.97802969688179" lon="-0.15802895962626995"><ele>79.0</ele><time>2026-04-14T17:21:37Z</time></trkpt><trkpt lat="46.97801396128956" lon="-0.157913508647242"><ele>79.0</ele><time>2026-04-14T17:21:38Z</time></trkpt><trkpt lat="46.97799140602443" lon="-0.15776114129906751"><ele>79.0</ele><time>2026-04-14T17:21:39Z</time></trkpt><trkpt lat="46.97797038249388" lon="-0.15760115760300053"><ele>79.0</ele><time>2026-04-14T17:21:40Z</time></trkpt><trkpt lat="46.97794489299798" lon="-0.15745302383276366"><ele>79.0</ele><time>2026-04-14T17:21:41Z</time></trkpt><trkpt lat="46.97793425879354" lon="-0.15733024810267787"><ele>78.8</ele><time>2026-04-14T17:21:42Z</time></trkpt><trkpt lat="46.97791538906938" lon="-0.15719355413037367"><ele>78.60000000000001</ele><time>2026-04-14T17:21:44Z</time></trkpt><trkpt lat="46.97789872964098" lon="-0.15706805267508608"><ele>78.4</ele><time>2026-04-14T17:21:46Z</time></trkpt><trkpt lat="46.977881605653835" lon="-0.15694327484059853"><ele>78.2</ele><time>2026-04-14T17:21:48Z</time></trkpt><trkpt lat="46.977854012960684" lon="-0.15681001995765834"><ele>78.0</ele><time>2026-04-14T17:25:19.999Z</time></trkpt><trkpt lat="46.977820367002984" lon="-0.1566880388792899"><ele>78.0</ele><time>2026-04-14T17:25:22Z</time></trkpt><trkpt lat="46.97783031338146" lon="-0.15658433775699607"><ele>78.0</ele><time>2026-04-14T17:25:26Z</time></trkpt><trkpt lat="46.97784955022381" lon="-0.15670665917107435"><ele>78.0</ele><time>2026-04-14T17:25:31Z</time></trkpt><trkpt lat="46.97786764324003" lon="-0.1568681513201198"><ele>78.0</ele><time>2026-04-14T17:25:33Z</time></trkpt><trkpt lat="46.97789389085959" lon="-0.15702176088944544"><ele>78.0</ele><time>2026-04-14T17:25:35Z</time></trkpt><trkpt lat="46.97791321784319" lon="-0.1571861170851615"><ele>78.0</ele><time>2026-04-14T17:25:37Z</time></trkpt><trkpt lat="46.97793766420064" lon="-0.15735385997291643"><ele>78.0</ele><time>2026-04-14T17:25:39Z</time></trkpt><trkpt lat="46.977951173728854" lon="-0.15745445006983438"><ele>78.0</ele><time>2026-04-14T17:25:40Z</time></trkpt><trkpt lat="46.97796424769707" lon="-0.15755507179295455"><ele>78.0</ele><time>2026-04-14T17:25:41Z</time></trkpt><trkpt lat="46.977979467279525" lon="-0.15765827478101327"><ele>78.0</ele><time>2026-04-14T17:25:42Z</time></trkpt><trkpt lat="46.97799261757266" lon="-0.1577562747111651"><ele>78.0</ele><time>2026-04-14T17:25:43Z</time></trkpt><trkpt lat="46.97800944414201" lon="-0.15785330241684978"><ele>78.16666666666667</ele><time>2026-04-14T17:25:44Z</time></trkpt><trkpt lat="46.97801860407348" lon="-0.157946519152218"><ele>78.33333333333333</ele><time>2026-04-14T17:25:45Z</time></trkpt><trkpt lat="46.978043737635964" lon="-0.15812580183966413"><ele>78.5</ele><time>2026-04-14T17:25:47Z</time></trkpt><trkpt lat="46.97805598097533" lon="-0.15822257688102126"><ele>78.66666666666666</ele><time>2026-04-14T17:25:48Z</time></trkpt><trkpt lat="46.97807197707517" lon="-0.15832040490452506"><ele>78.83333333333333</ele><time>2026-04-14T17:25:49Z</time></trkpt><trkpt lat="46.97808884718209" lon="-0.15842053872463818"><ele>79.0</ele><time>2026-04-14T17:25:50Z</time></trkpt><trkpt lat="46.97809890035335" lon="-0.1585144287202952"><ele>79.00000000000001</ele><time>2026-04-14T17:25:51Z</time></trkpt><trkpt lat="46.978106550107604" lon="-0.1586154658812877"><ele>79.0</ele><time>2026-04-14T17:25:52Z</time></trkpt><trkpt lat="46.97812066793444" lon="-0.1587094429824291"><ele>79.0</ele><time>2026-04-14T17:25:53Z</time></trkpt><trkpt lat="46.978131714981494" lon="-0.1588047300731039"><ele>79.0</ele><time>2026-04-14T17:25:53.999Z</time></trkpt><trkpt lat="46.97814637008441" lon="-0.15890531892684"><ele>79.0</ele><time>2026-04-14T17:25:54.999Z</time></trkpt><trkpt lat="46.97816257400771" lon="-0.15901078916931732"><ele>79.00000000000001</ele><time>2026-04-14T17:25:55.999Z</time></trkpt><trkpt lat="46.978183078975775" lon="-0.15912066882155573"><ele>79.0</ele><time>2026-04-14T17:25:56.999Z</time></trkpt><trkpt lat="46.97820260638616" lon="-0.15922866005894407"><ele>79.00000000000001</ele><time>2026-04-14T17:25:57.999Z</time></trkpt><trkpt lat="46.97821545357353" lon="-0.15933799009913946"><ele>79.0</ele><time>2026-04-14T17:25:58.999Z</time></trkpt><trkpt lat="46.978223556425895" lon="-0.15943536635153957"><ele>79.0</ele><time>2026-04-14T17:25:59.999Z</time></trkpt><trkpt lat="46.97823679169814" lon="-0.1595311650141222"><ele>79.0</ele><time>2026-04-14T17:26:00.999Z</time></trkpt><trkpt lat="46.9782531038043" lon="-0.15962884592816345"><ele>79.0</ele><time>2026-04-14T17:26:01.999Z</time></trkpt><trkpt lat="46.97826565244334" lon="-0.15972670982827736"><ele>79.00000000000001</ele><time>2026-04-14T17:26:02.999Z</time></trkpt><trkpt lat="46.97827911826763" lon="-0.1598314245265403"><ele>79.0</ele><time>2026-04-14T17:26:03.999Z</time></trkpt><trkpt lat="46.97829517955508" lon="-0.15993766034191925"><ele>79.0</ele><time>2026-04-14T17:26:04.999Z</time></trkpt><trkpt lat="46.97831032550547" lon="-0.1600433560519047"><ele>79.0</ele><time>2026-04-14T17:26:05.999Z</time></trkpt><trkpt lat="46.978322947552805" lon="-0.16014799861679002"><ele>79.0</ele><time>2026-04-14T17:26:06.999Z</time></trkpt><trkpt lat="46.97833750069208" lon="-0.16025009741366458"><ele>79.0</ele><time>2026-04-14T17:26:07.999Z</time></trkpt><trkpt lat="46.978355049098774" lon="-0.16035256334419407"><ele>79.0</ele><time>2026-04-14T17:26:08.999Z</time></trkpt><trkpt lat="46.97837194991835" lon="-0.16045260557177668"><ele>79.0</ele><time>2026-04-14T17:26:09.999Z</time></trkpt><trkpt lat="46.97840016379999" lon="-0.1606154470366103"><ele>79.2</ele><time>2026-04-14T17:26:11.999Z</time></trkpt><trkpt lat="46.9784219382759" lon="-0.16077202106454863"><ele>79.4</ele><time>2026-04-14T17:26:13.999Z</time></trkpt><trkpt lat="46.978435699864534" lon="-0.16086454132742026"><ele>79.6</ele><time>2026-04-14T17:26:14.999Z</time></trkpt><trkpt lat="46.97845194309964" lon="-0.16101420574896144"><ele>79.8</ele><time>2026-04-14T17:26:16.999Z</time></trkpt><trkpt lat="46.97848693406769" lon="-0.16116365034170715"><ele>80.0</ele><time>2026-04-14T17:26:18.999Z</time></trkpt><trkpt lat="46.97851723964878" lon="-0.1613069834059738"><ele>80.0</ele><time>2026-04-14T17:26:20.999Z</time></trkpt><trkpt lat="46.978542638626436" lon="-0.16146475555134485"><ele>80.0</ele><time>2026-04-14T17:26:22.999Z</time></trkpt><trkpt lat="46.978555219606214" lon="-0.16160165887432315"><ele>80.0</ele><time>2026-04-14T17:26:24.999Z</time></trkpt><trkpt lat="46.97857323707346" lon="-0.16174342829361782"><ele>80.0</ele><time>2026-04-14T17:26:26.999Z</time></trkpt><trkpt lat="46.97859447805181" lon="-0.1619068497882122"><ele>80.0</ele><time>2026-04-14T17:26:28.999Z</time></trkpt><trkpt lat="46.9786163857105" lon="-0.16206920977322756"><ele>80.0</ele><time>2026-04-14T17:26:30.999Z</time></trkpt><trkpt lat="46.978638288491105" lon="-0.16223184305597405"><ele>80.0</ele><time>2026-04-14T17:26:32.999Z</time></trkpt><trkpt lat="46.97864854715402" lon="-0.16240597766134685"><ele>80.0</ele><time>2026-04-14T17:26:34.999Z</time></trkpt><trkpt lat="46.9786595302315" lon="-0.16250556153659831"><ele>80.0</ele><time>2026-04-14T17:26:35.999Z</time></trkpt><trkpt lat="46.97866710844689" lon="-0.16260655807289429"><ele>80.0</ele><time>2026-04-14T17:26:36.999Z</time></trkpt><trkpt lat="46.97870411034717" lon="-0.16281660422232266"><ele>80.0</ele><time>2026-04-14T17:26:38.999Z</time></trkpt><trkpt lat="46.978712868520006" lon="-0.16292485584972657"><ele>80.0</ele><time>2026-04-14T17:26:39.999Z</time></trkpt><trkpt lat="46.978716949875604" lon="-0.1630255761407776"><ele>80.0</ele><time>2026-04-14T17:26:40.999Z</time></trkpt><trkpt lat="46.97872822288398" lon="-0.16312851783713622"><ele>80.0</ele><time>2026-04-14T17:26:41.999Z</time></trkpt><trkpt lat="46.97874585897388" lon="-0.16322989847220495"><ele>80.0</ele><time>2026-04-14T17:26:42.999Z</time></trkpt><trkpt lat="46.978767843788496" lon="-0.16333412991666452"><ele>80.0</ele><time>2026-04-14T17:26:43.999Z</time></trkpt><trkpt lat="46.97879295882177" lon="-0.16343072967870625"><ele>80.0</ele><time>2026-04-14T17:26:44.999Z</time></trkpt><trkpt lat="46.978816747576154" lon="-0.16355414835798676"><ele>80.2</ele><time>2026-04-14T17:26:45.999Z</time></trkpt><trkpt lat="46.97882405214404" lon="-0.1636726816429867"><ele>80.4</ele><time>2026-04-14T17:26:46.999Z</time></trkpt><trkpt lat="46.97884461370512" lon="-0.16380294680845056"><ele>80.6</ele><time>2026-04-14T17:26:47.999Z</time></trkpt><trkpt lat="46.97886949927149" lon="-0.16393661710092994"><ele>80.8</ele><time>2026-04-14T17:26:48.999Z</time></trkpt><trkpt lat="46.97890246195883" lon="-0.16408711476963578"><ele>81.0</ele><time>2026-04-14T17:26:49.999Z</time></trkpt><trkpt lat="46.97893149908541" lon="-0.16421733478033482"><ele>81.0</ele><time>2026-04-14T17:26:50.999Z</time></trkpt><trkpt lat="46.978962362944586" lon="-0.1643339011683962"><ele>81.0</ele><time>2026-04-14T17:26:51.999Z</time></trkpt><trkpt lat="46.978965898618945" lon="-0.16446486971113847"><ele>81.0</ele><time>2026-04-14T17:26:52.999Z</time></trkpt><trkpt lat="46.978982092310545" lon="-0.16463219220365263"><ele>81.0</ele><time>2026-04-14T17:26:53.999Z</time></trkpt><trkpt lat="46.97900791282314" lon="-0.16479621262804545"><ele>81.0</ele><time>2026-04-14T17:26:54.999Z</time></trkpt><trkpt lat="46.979023336252006" lon="-0.16495281302886125"><ele>81.19999999999999</ele><time>2026-04-14T17:26:55.999Z</time></trkpt><trkpt lat="46.9790340540061" lon="-0.16507214018041083"><ele>81.39999999999999</ele><time>2026-04-14T17:26:56.999Z</time></trkpt><trkpt lat="46.97905539485096" lon="-0.16520234396844907"><ele>81.6</ele><time>2026-04-14T17:26:57.999Z</time></trkpt><trkpt lat="46.97908156785004" lon="-0.16534560434155024"><ele>81.8</ele><time>2026-04-14T17:26:58.999Z</time></trkpt><trkpt lat="46.97910500308207" lon="-0.1654861883774063"><ele>82.0</ele><time>2026-04-14T17:26:59.999Z</time></trkpt><trkpt lat="46.97913585463825" lon="-0.16564733877681284"><ele>82.19999999999999</ele><time>2026-04-14T17:27:00.999Z</time></trkpt><trkpt lat="46.979173484747385" lon="-0.16580196658857513"><ele>82.4</ele><time>2026-04-14T17:27:01.999Z</time></trkpt><trkpt lat="46.9792186146058" lon="-0.1659591430004806"><ele>82.6</ele><time>2026-04-14T17:27:02.999Z</time></trkpt><trkpt lat="46.97925660020374" lon="-0.16609827905529553"><ele>82.80000000000001</ele><time>2026-04-14T17:27:03.999Z</time></trkpt><trkpt lat="46.97929515746734" lon="-0.1662488960389434"><ele>83.0</ele><time>2026-04-14T17:27:04.999Z</time></trkpt><trkpt lat="46.97931908214502" lon="-0.16637645620425537"><ele>83.0</ele><time>2026-04-14T17:27:05.999Z</time></trkpt><trkpt lat="46.97934644702206" lon="-0.16647888821052334"><ele>83.0</ele><time>2026-04-14T17:27:06.999Z</time></trkpt><trkpt lat="46.97935628518876" lon="-0.16659164055630024"><ele>83.0</ele><time>2026-04-14T17:27:07.999Z</time></trkpt><trkpt lat="46.979378225826885" lon="-0.16668986457249682"><ele>83.0</ele><time>2026-04-14T17:27:08.999Z</time></trkpt><trkpt lat="46.97937832977875" lon="-0.16684879150022866"><ele>83.0</ele><time>2026-04-14T17:27:10.999Z</time></trkpt><trkpt lat="46.97928239583232" lon="-0.16689988167462275"><ele>83.0</ele><time>2026-04-14T17:27:50.999Z</time></trkpt><trkpt lat="46.97916695926601" lon="-0.1668571513839596"><ele>83.0</ele><time>2026-04-14T17:27:52.999Z</time></trkpt><trkpt lat="46.97905989707649" lon="-0.16677895331865272"><ele>83.0</ele><time>2026-04-14T17:27:54.999Z</time></trkpt><trkpt lat="46.97900877580344" lon="-0.16665950267196164"><ele>83.0</ele><time>2026-04-14T17:27:55.999Z</time></trkpt><trkpt lat="46.97897372622997" lon="-0.16651204703587924"><ele>83.0</ele><time>2026-04-14T17:27:56.999Z</time></trkpt><trkpt lat="46.97893797523123" lon="-0.16637118174580773"><ele>83.0</ele><time>2026-04-14T17:27:57.999Z</time></trkpt><trkpt lat="46.97889113920608" lon="-0.16625951256291555"><ele>83.0</ele><time>2026-04-14T17:27:58.999Z</time></trkpt><trkpt lat="46.978822885494125" lon="-0.16614826628666265"><ele>83.0</ele><time>2026-04-14T17:27:59.999Z</time></trkpt><trkpt lat="46.97875679000043" lon="-0.16605662157408038"><ele>83.0</ele><time>2026-04-14T17:28:00.999Z</time></trkpt><trkpt lat="46.97868976892737" lon="-0.16597484468237705"><ele>83.0</ele><time>2026-04-14T17:28:01.999Z</time></trkpt><trkpt lat="46.978620632523324" lon="-0.16589732629479315"><ele>83.0</ele><time>2026-04-14T17:28:02.999Z</time></trkpt><trkpt lat="46.97853982610325" lon="-0.1657997859463782"><ele>82.75</ele><time>2026-04-14T17:28:03.999Z</time></trkpt><trkpt lat="46.9784533623815" lon="-0.16568332423160698"><ele>82.5</ele><time>2026-04-14T17:28:04.999Z</time></trkpt><trkpt lat="46.97836970780205" lon="-0.16555800121338046"><ele>82.25</ele><time>2026-04-14T17:28:05.999Z</time></trkpt><trkpt lat="46.97828649005621" lon="-0.16544498004022462"><ele>82.0</ele><time>2026-04-14T17:28:06.999Z</time></trkpt><trkpt lat="46.9782025164403" lon="-0.16532747989133953"><ele>82.39999999999999</ele><time>2026-04-14T17:28:07.999Z</time></trkpt><trkpt lat="46.97812112094961" lon="-0.1652226132027409"><ele>82.8</ele><time>2026-04-14T17:28:08.999Z</time></trkpt><trkpt lat="46.978045344713735" lon="-0.16510909491473674"><ele>83.2</ele><time>2026-04-14T17:28:09.999Z</time></trkpt><trkpt lat="46.977957905767646" lon="-0.16500522127021877"><ele>83.6</ele><time>2026-04-14T17:28:10.999Z</time></trkpt><trkpt lat="46.97786677930502" lon="-0.1649126601384291"><ele>84.0</ele><time>2026-04-14T17:28:11.999Z</time></trkpt><trkpt lat="46.97777691609119" lon="-0.16482511959392204"><ele>84.0</ele><time>2026-04-14T17:28:12.999Z</time></trkpt><trkpt lat="46.97770089025513" lon="-0.16475969410214122"><ele>84.0</ele><time>2026-04-14T17:28:13.999Z</time></trkpt><trkpt lat="46.97761632347114" lon="-0.1646900702268913"><ele>84.0</ele><time>2026-04-14T17:28:14.999Z</time></trkpt><trkpt lat="46.977502616765655" lon="-0.16459695612543673"><ele>84.0</ele><time>2026-04-14T17:28:15.999Z</time></trkpt><trkpt lat="46.97738069867581" lon="-0.1644896937072979"><ele>84.5</ele><time>2026-04-14T17:28:16.999Z</time></trkpt><trkpt lat="46.97726176820758" lon="-0.16438715240229176"><ele>85.0</ele><time>2026-04-14T17:28:17.999Z</time></trkpt><trkpt lat="46.97713863205774" lon="-0.16425698641168723"><ele>85.5</ele><time>2026-04-14T17:28:18.999Z</time></trkpt><trkpt lat="46.977017949110696" lon="-0.16412421812900577"><ele>86.0</ele><time>2026-04-14T17:28:19.999Z</time></trkpt><trkpt lat="46.97688794840859" lon="-0.16399971953993178"><ele>86.0</ele><time>2026-04-14T17:28:20.999Z</time></trkpt><trkpt lat="46.97675063617932" lon="-0.16386758918868785"><ele>86.0</ele><time>2026-04-14T17:28:21.999Z</time></trkpt><trkpt lat="46.97661021891105" lon="-0.16374082489726552"><ele>86.0</ele><time>2026-04-14T17:28:22.999Z</time></trkpt><trkpt lat="46.976466683445736" lon="-0.163621357337974"><ele>86.5</ele><time>2026-04-14T17:28:23.999Z</time></trkpt><trkpt lat="46.97633572749825" lon="-0.16352359578892045"><ele>87.0</ele><time>2026-04-14T17:28:24.999Z</time></trkpt><trkpt lat="46.97620931451552" lon="-0.16343594877137632"><ele>87.5</ele><time>2026-04-14T17:28:25.999Z</time></trkpt><trkpt lat="46.97607969555117" lon="-0.16334203544526335"><ele>88.0</ele><time>2026-04-14T17:28:26.999Z</time></trkpt><trkpt lat="46.97593638479194" lon="-0.16325132943652687"><ele>88.75</ele><time>2026-04-14T17:28:27.999Z</time></trkpt><trkpt lat="46.97580251267503" lon="-0.16317500535562499"><ele>89.5</ele><time>2026-04-14T17:28:28.999Z</time></trkpt><trkpt lat="46.975692452663445" lon="-0.1631166827147885"><ele>90.25</ele><time>2026-04-14T17:28:29.999Z</time></trkpt><trkpt lat="46.97559365303093" lon="-0.1630702276015765"><ele>91.0</ele><time>2026-04-14T17:28:30.999Z</time></trkpt><trkpt lat="46.97550738868463" lon="-0.16303035080355802"><ele>91.0</ele><time>2026-04-14T17:28:31.999Z</time></trkpt><trkpt lat="46.97543297334469" lon="-0.16299182838842743"><ele>91.0</ele><time>2026-04-14T17:28:32.999Z</time></trkpt><trkpt lat="46.975368836403085" lon="-0.16296752879876752"><ele>91.0</ele><time>2026-04-14T17:28:33.999Z</time></trkpt><trkpt lat="46.97530350994518" lon="-0.1629427751804838"><ele>91.0</ele><time>2026-04-14T17:28:34.999Z</time></trkpt><trkpt lat="46.97518177995798" lon="-0.16289807792482527"><ele>91.0</ele><time>2026-04-14T17:28:36.999Z</time></trkpt><trkpt lat="46.975112782518174" lon="-0.16286592702001645"><ele>91.0</ele><time>2026-04-14T17:28:37.999Z</time></trkpt><trkpt lat="46.97502678602444" lon="-0.1628275909962907"><ele>91.33333333333333</ele><time>2026-04-14T17:28:38.999Z</time></trkpt><trkpt lat="46.9749485287137" lon="-0.1627954586467734"><ele>91.66666666666666</ele><time>2026-04-14T17:28:39.999Z</time></trkpt><trkpt lat="46.974875572615254" lon="-0.16276214835279448"><ele>92.0</ele><time>2026-04-14T17:28:40.999Z</time></trkpt><trkpt lat="46.974790237184656" lon="-0.16271760271438207"><ele>92.33333333333333</ele><time>2026-04-14T17:28:41.999Z</time></trkpt><trkpt lat="46.97470853534096" lon="-0.1626792181207789"><ele>92.66666666666667</ele><time>2026-04-14T17:28:42.999Z</time></trkpt><trkpt lat="46.97463077484536" lon="-0.1626436260779124"><ele>93.0</ele><time>2026-04-14T17:28:43.999Z</time></trkpt><trkpt lat="46.97456326951729" lon="-0.1626057824609454"><ele>93.0</ele><time>2026-04-14T17:28:44.999Z</time></trkpt><trkpt lat="46.974498045221615" lon="-0.16256123978545198"><ele>93.0</ele><time>2026-04-14T17:28:45.999Z</time></trkpt><trkpt lat="46.97444502905078" lon="-0.16250894067785562"><ele>93.0</ele><time>2026-04-14T17:28:46.999Z</time></trkpt><trkpt lat="46.97436410569948" lon="-0.16240124559605934"><ele>93.0</ele><time>2026-04-14T17:28:48.999Z</time></trkpt><trkpt lat="46.97430170798368" lon="-0.16229966342029972"><ele>93.0</ele><time>2026-04-14T17:28:51.999Z</time></trkpt><trkpt lat="46.974229986097164" lon="-0.1622938389804439"><ele>93.0</ele><time>2026-04-14T17:29:01.999Z</time></trkpt><trkpt lat="46.97420732411779" lon="-0.16238026661143543"><ele>93.0</ele><time>2026-04-14T17:29:04.999Z</time></trkpt><trkpt lat="46.974235975879864" lon="-0.1625385292322683"><ele>93.0</ele><time>2026-04-14T17:29:06.999Z</time></trkpt><trkpt lat="46.97425160902171" lon="-0.16263041010718612"><ele>93.0</ele><time>2026-04-14T17:29:07.999Z</time></trkpt><trkpt lat="46.97427227128451" lon="-0.16272928391638414"><ele>93.0</ele><time>2026-04-14T17:29:08.999Z</time></trkpt><trkpt lat="46.97429358793438" lon="-0.16284213694683414"><ele>93.0</ele><time>2026-04-14T17:29:09.999Z</time></trkpt><trkpt lat="46.9743170498603" lon="-0.1629511657753612"><ele>93.0</ele><time>2026-04-14T17:29:10.999Z</time></trkpt><trkpt lat="46.974341592352324" lon="-0.1630597974483273"><ele>92.80000000000001</ele><time>2026-04-14T17:29:11.999Z</time></trkpt><trkpt lat="46.97437102436759" lon="-0.16320229952636933"><ele>92.6</ele><time>2026-04-14T17:29:12.999Z</time></trkpt><trkpt lat="46.97439880413667" lon="-0.16332262650919024"><ele>92.4</ele><time>2026-04-14T17:29:13.999Z</time></trkpt><trkpt lat="46.974423974999624" lon="-0.16343635761227845"><ele>92.19999999999999</ele><time>2026-04-14T17:29:14.999Z</time></trkpt><trkpt lat="46.97444880266139" lon="-0.16355585579761692"><ele>92.0</ele><time>2026-04-14T17:29:15.999Z</time></trkpt><trkpt lat="46.97447596795285" lon="-0.16368926226326042"><ele>92.0</ele><time>2026-04-14T17:29:16.999Z</time></trkpt><trkpt lat="46.97450712928142" lon="-0.16383015411634058"><ele>92.0</ele><time>2026-04-14T17:29:18Z</time></trkpt><trkpt lat="46.97455276851131" lon="-0.16395644053521108"><ele>92.0</ele><time>2026-04-14T17:29:19Z</time></trkpt><trkpt lat="46.97458096089552" lon="-0.16407651217558716"><ele>92.0</ele><time>2026-04-14T17:29:20Z</time></trkpt><trkpt lat="46.97459746248538" lon="-0.1642110602191316"><ele>92.0</ele><time>2026-04-14T17:29:21Z</time></trkpt><trkpt lat="46.97462650009801" lon="-0.16433064608123454"><ele>92.0</ele><time>2026-04-14T17:29:22Z</time></trkpt><trkpt lat="46.97465489160736" lon="-0.1644323585766761"><ele>92.0</ele><time>2026-04-14T17:29:23Z</time></trkpt><trkpt lat="46.97468358772378" lon="-0.16453987558173966"><ele>92.0</ele><time>2026-04-14T17:29:24Z</time></trkpt><trkpt lat="46.97471151714462" lon="-0.16464437136491472"><ele>92.0</ele><time>2026-04-14T17:29:25Z</time></trkpt><trkpt lat="46.97473954618132" lon="-0.16473605022926568"><ele>92.0</ele><time>2026-04-14T17:29:26Z</time></trkpt><trkpt lat="46.97476669649041" lon="-0.16483504765416304"><ele>92.0</ele><time>2026-04-14T17:29:27Z</time></trkpt><trkpt lat="46.97479507347533" lon="-0.16495219224301388"><ele>92.0</ele><time>2026-04-14T17:29:28Z</time></trkpt><trkpt lat="46.97482617770522" lon="-0.16507311498242871"><ele>92.0</ele><time>2026-04-14T17:29:29Z</time></trkpt><trkpt lat="46.97486082722861" lon="-0.16519843230075806"><ele>92.0</ele><time>2026-04-14T17:29:30Z</time></trkpt><trkpt lat="46.974899905030775" lon="-0.16532827869429825"><ele>92.0</ele><time>2026-04-14T17:29:31Z</time></trkpt><trkpt lat="46.97493332496837" lon="-0.16546039897978324"><ele>92.0</ele><time>2026-04-14T17:29:32Z</time></trkpt><trkpt lat="46.97497330254388" lon="-0.16559740094204178"><ele>92.19999999999999</ele><time>2026-04-14T17:29:33Z</time></trkpt><trkpt lat="46.97502015984778" lon="-0.1657327580724143"><ele>92.4</ele><time>2026-04-14T17:29:34Z</time></trkpt><trkpt lat="46.97505852142996" lon="-0.16586916641657348"><ele>92.6</ele><time>2026-04-14T17:29:35Z</time></trkpt><trkpt lat="46.975093555254865" lon="-0.16600517240626336"><ele>92.80000000000001</ele><time>2026-04-14T17:29:36Z</time></trkpt><trkpt lat="46.97513748581752" lon="-0.16614638409923377"><ele>93.0</ele><time>2026-04-14T17:29:37Z</time></trkpt><trkpt lat="46.975190016894835" lon="-0.1663155608961857"><ele>92.33333333333333</ele><time>2026-04-14T17:29:38Z</time></trkpt><trkpt lat="46.97525504228211" lon="-0.16651486357831627"><ele>91.66666666666666</ele><time>2026-04-14T17:29:39Z</time></trkpt><trkpt lat="46.97531812741683" lon="-0.16672864832179723"><ele>91.0</ele><time>2026-04-14T17:29:40Z</time></trkpt><trkpt lat="46.97538419611009" lon="-0.16693596737460126"><ele>91.0</ele><time>2026-04-14T17:29:41Z</time></trkpt><trkpt lat="46.975439569216796" lon="-0.16710845360462606"><ele>91.0</ele><time>2026-04-14T17:29:42Z</time></trkpt><trkpt lat="46.97549987239759" lon="-0.16730377407036975"><ele>91.0</ele><time>2026-04-14T17:29:43Z</time></trkpt><trkpt lat="46.97557798561671" lon="-0.16751742882589324"><ele>91.0</ele><time>2026-04-14T17:29:44Z</time></trkpt><trkpt lat="46.975660856993365" lon="-0.167735572451102"><ele>91.0</ele><time>2026-04-14T17:29:45Z</time></trkpt><trkpt lat="46.975737605423525" lon="-0.16793610312426846"><ele>91.0</ele><time>2026-04-14T17:29:46Z</time></trkpt><trkpt lat="46.97581960965048" lon="-0.16813844691075833"><ele>91.0</ele><time>2026-04-14T17:29:47Z</time></trkpt><trkpt lat="46.97591160545921" lon="-0.16835237885724477"><ele>89.66666666666666</ele><time>2026-04-14T17:29:48Z</time></trkpt><trkpt lat="46.975990345840785" lon="-0.1685452908526187"><ele>88.33333333333333</ele><time>2026-04-14T17:29:49Z</time></trkpt><trkpt lat="46.97607910046257" lon="-0.1687620150331129"><ele>87.0</ele><time>2026-04-14T17:29:50Z</time></trkpt><trkpt lat="46.97615283141827" lon="-0.1689612217847928"><ele>87.0</ele><time>2026-04-14T17:29:51Z</time></trkpt><trkpt lat="46.976233455617965" lon="-0.1691824488928868"><ele>87.0</ele><time>2026-04-14T17:29:52Z</time></trkpt><trkpt lat="46.9763208628503" lon="-0.1694180683298225"><ele>87.0</ele><time>2026-04-14T17:29:53Z</time></trkpt><trkpt lat="46.97639377465722" lon="-0.16962251754243976"><ele>87.0</ele><time>2026-04-14T17:29:54Z</time></trkpt><trkpt lat="46.97646511928726" lon="-0.16982604672975452"><ele>87.0</ele><time>2026-04-14T17:29:55Z</time></trkpt><trkpt lat="46.9765344103317" lon="-0.1700370820527609"><ele>87.0</ele><time>2026-04-14T17:29:56Z</time></trkpt><trkpt lat="46.976600696889136" lon="-0.17024823274667436"><ele>86.66666666666667</ele><time>2026-04-14T17:29:57Z</time></trkpt><trkpt lat="46.97666423246658" lon="-0.1704549324246524"><ele>86.33333333333334</ele><time>2026-04-14T17:29:58Z</time></trkpt><trkpt lat="46.976729054667494" lon="-0.17066931668201177"><ele>86.0</ele><time>2026-04-14T17:29:59Z</time></trkpt><trkpt lat="46.97679486354801" lon="-0.17089435730431637"><ele>86.0</ele><time>2026-04-14T17:30:00Z</time></trkpt><trkpt lat="46.97685337786643" lon="-0.1710949937535821"><ele>86.0</ele><time>2026-04-14T17:30:01Z</time></trkpt><trkpt lat="46.97689798693068" lon="-0.17126306028608115"><ele>86.0</ele><time>2026-04-14T17:30:02Z</time></trkpt><trkpt lat="46.97693866086821" lon="-0.171428766507663"><ele>86.0</ele><time>2026-04-14T17:30:03Z</time></trkpt><trkpt lat="46.97697830404153" lon="-0.17160855090361019"><ele>86.0</ele><time>2026-04-14T17:30:04Z</time></trkpt><trkpt lat="46.97701882786776" lon="-0.17179294676517962"><ele>86.0</ele><time>2026-04-14T17:30:05Z</time></trkpt><trkpt lat="46.97706134733693" lon="-0.17196134644812003"><ele>86.0</ele><time>2026-04-14T17:30:06Z</time></trkpt><trkpt lat="46.977073473117365" lon="-0.17214353143871933"><ele>86.0</ele><time>2026-04-14T17:30:07Z</time></trkpt><trkpt lat="46.97709385131062" lon="-0.17230331283888983"><ele>86.25</ele><time>2026-04-14T17:30:08Z</time></trkpt><trkpt lat="46.97710948776184" lon="-0.17244777535714328"><ele>86.5</ele><time>2026-04-14T17:30:09Z</time></trkpt><trkpt lat="46.97712426090926" lon="-0.1726273583832289"><ele>86.75</ele><time>2026-04-14T17:30:10Z</time></trkpt><trkpt lat="46.977153217847444" lon="-0.17281492730549594"><ele>87.0</ele><time>2026-04-14T17:30:11Z</time></trkpt><trkpt lat="46.977146950275774" lon="-0.17297171642806794"><ele>87.0</ele><time>2026-04-14T17:30:12Z</time></trkpt><trkpt lat="46.97714959294135" lon="-0.1731260445284887"><ele>87.0</ele><time>2026-04-14T17:30:13Z</time></trkpt><trkpt lat="46.97714740710882" lon="-0.17325454751990677"><ele>87.0</ele><time>2026-04-14T17:30:14Z</time></trkpt><trkpt lat="46.97715941117467" lon="-0.17336623296257742"><ele>87.0</ele><time>2026-04-14T17:30:15Z</time></trkpt><trkpt lat="46.977143005042635" lon="-0.17349243981795973"><ele>87.0</ele><time>2026-04-14T17:30:16Z</time></trkpt><trkpt lat="46.977131697904" lon="-0.1736230179465967"><ele>87.0</ele><time>2026-04-14T17:30:17Z</time></trkpt><trkpt lat="46.97713747133945" lon="-0.17375565106780147"><ele>87.0</ele><time>2026-04-14T17:30:18Z</time></trkpt><trkpt lat="46.977110665605885" lon="-0.1738981649864091"><ele>87.0</ele><time>2026-04-14T17:30:19Z</time></trkpt><trkpt lat="46.97709651294548" lon="-0.17407898647119682"><ele>87.0</ele><time>2026-04-14T17:30:20Z</time></trkpt><trkpt lat="46.97708916983397" lon="-0.17426035404394796"><ele>87.0</ele><time>2026-04-14T17:30:21Z</time></trkpt><trkpt lat="46.977072768768025" lon="-0.17443314055767117"><ele>86.75</ele><time>2026-04-14T17:30:22Z</time></trkpt><trkpt lat="46.977055304198544" lon="-0.17462106742396763"><ele>86.5</ele><time>2026-04-14T17:30:23Z</time></trkpt><trkpt lat="46.97703600000889" lon="-0.17483556981483878"><ele>86.25</ele><time>2026-04-14T17:30:24Z</time></trkpt><trkpt lat="46.97700575156927" lon="-0.17505872439296358"><ele>86.0</ele><time>2026-04-14T17:30:25Z</time></trkpt><trkpt lat="46.97700027684995" lon="-0.175291186546741"><ele>86.66666666666667</ele><time>2026-04-14T17:30:26Z</time></trkpt><trkpt lat="46.97701793132906" lon="-0.1755205481719613"><ele>87.33333333333333</ele><time>2026-04-14T17:30:27Z</time></trkpt><trkpt lat="46.97703253692314" lon="-0.17574584036613286"><ele>88.0</ele><time>2026-04-14T17:30:28Z</time></trkpt><trkpt lat="46.97705084658073" lon="-0.17597257732176907"><ele>88.0</ele><time>2026-04-14T17:30:29Z</time></trkpt><trkpt lat="46.97705867604558" lon="-0.17620781258648777"><ele>88.0</ele><time>2026-04-14T17:30:30Z</time></trkpt><trkpt lat="46.97708659134563" lon="-0.17645630148365868"><ele>88.0</ele><time>2026-04-14T17:30:31Z</time></trkpt><trkpt lat="46.97711566697139" lon="-0.17671881377721904"><ele>88.0</ele><time>2026-04-14T17:30:32Z</time></trkpt><trkpt lat="46.977142259424504" lon="-0.17696196153593025"><ele>88.0</ele><time>2026-04-14T17:30:33Z</time></trkpt><trkpt lat="46.97717237531452" lon="-0.17716280833677336"><ele>88.0</ele><time>2026-04-14T17:30:34Z</time></trkpt><trkpt lat="46.97720209093657" lon="-0.17734860788050458"><ele>88.0</ele><time>2026-04-14T17:30:35Z</time></trkpt><trkpt lat="46.97723686827983" lon="-0.1775605429686442"><ele>88.25</ele><time>2026-04-14T17:30:36Z</time></trkpt><trkpt lat="46.97727355400217" lon="-0.17777296439604487"><ele>88.5</ele><time>2026-04-14T17:30:37Z</time></trkpt><trkpt lat="46.977310523548915" lon="-0.17797013963475386"><ele>88.75</ele><time>2026-04-14T17:30:38Z</time></trkpt><trkpt lat="46.977346572085445" lon="-0.17816744210916846"><ele>89.0</ele><time>2026-04-14T17:30:39Z</time></trkpt><trkpt lat="46.97738355901182" lon="-0.17836826655236215"><ele>89.0</ele><time>2026-04-14T17:30:40Z</time></trkpt><trkpt lat="46.97741772211415" lon="-0.17856787338346167"><ele>89.0</ele><time>2026-04-14T17:30:41Z</time></trkpt><trkpt lat="46.9774518070627" lon="-0.17876537839489218"><ele>89.0</ele><time>2026-04-14T17:30:42Z</time></trkpt><trkpt lat="46.977483878013956" lon="-0.17894221830995652"><ele>89.0</ele><time>2026-04-14T17:30:43Z</time></trkpt><trkpt lat="46.977507911457245" lon="-0.1790888329761522"><ele>89.16666666666667</ele><time>2026-04-14T17:30:44Z</time></trkpt><trkpt lat="46.97753544809511" lon="-0.17920842088251493"><ele>89.33333333333334</ele><time>2026-04-14T17:30:45Z</time></trkpt><trkpt lat="46.977554991348654" lon="-0.17932191371453907"><ele>89.5</ele><time>2026-04-14T17:30:46Z</time></trkpt><trkpt lat="46.97757977495885" lon="-0.1794516819056404"><ele>89.66666666666667</ele><time>2026-04-14T17:30:47Z</time></trkpt><trkpt lat="46.97759830359018" lon="-0.17955590633126947"><ele>89.83333333333333</ele><time>2026-04-14T17:30:48Z</time></trkpt><trkpt lat="46.977618832949204" lon="-0.17965787961777668"><ele>90.0</ele><time>2026-04-14T17:30:49Z</time></trkpt><trkpt lat="46.97764263766481" lon="-0.17978850773852356"><ele>89.83333333333333</ele><time>2026-04-14T17:30:50Z</time></trkpt><trkpt lat="46.97767062813829" lon="-0.1799342622620801"><ele>89.66666666666667</ele><time>2026-04-14T17:30:51Z</time></trkpt><trkpt lat="46.97769516735315" lon="-0.18004878519438927"><ele>89.5</ele><time>2026-04-14T17:30:52Z</time></trkpt><trkpt lat="46.97771422389405" lon="-0.18014263432815222"><ele>89.33333333333334</ele><time>2026-04-14T17:30:53Z</time></trkpt><trkpt lat="46.97774492623128" lon="-0.18027693454335586"><ele>89.16666666666667</ele><time>2026-04-14T17:30:55Z</time></trkpt><trkpt lat="46.97779107205681" lon="-0.180405560666498"><ele>89.0</ele><time>2026-04-14T17:30:57Z</time></trkpt><trkpt lat="46.97781700742464" lon="-0.18050925567702267"><ele>89.0</ele><time>2026-04-14T17:30:59Z</time></trkpt><trkpt lat="46.97784323889702" lon="-0.18061821704190598"><ele>89.0</ele><time>2026-04-14T17:31:02Z</time></trkpt><trkpt lat="46.9778685584466" lon="-0.18072462862120656"><ele>89.0</ele><time>2026-04-14T17:31:04Z</time></trkpt><trkpt lat="46.97791727763935" lon="-0.18093069156615643"><ele>89.0</ele><time>2026-04-14T17:31:06Z</time></trkpt><trkpt lat="46.97794099341508" lon="-0.18110737067320143"><ele>89.0</ele><time>2026-04-14T17:31:07Z</time></trkpt><trkpt lat="46.97798667292341" lon="-0.18128189256711405"><ele>89.0</ele><time>2026-04-14T17:31:08Z</time></trkpt><trkpt lat="46.978027341757794" lon="-0.1814760654966662"><ele>89.0</ele><time>2026-04-14T17:31:09Z</time></trkpt><trkpt lat="46.97807444292053" lon="-0.1816892873009237"><ele>89.0</ele><time>2026-04-14T17:31:10Z</time></trkpt><trkpt lat="46.97812774279062" lon="-0.18191802129226645"><ele>89.0</ele><time>2026-04-14T17:31:11Z</time></trkpt><trkpt lat="46.978196877146615" lon="-0.18214542903355885"><ele>89.0</ele><time>2026-04-14T17:31:12Z</time></trkpt><trkpt lat="46.97824801923738" lon="-0.1823645277025694"><ele>89.0</ele><time>2026-04-14T17:31:13Z</time></trkpt><trkpt lat="46.97829449750525" lon="-0.18255284725100543"><ele>88.75</ele><time>2026-04-14T17:31:14Z</time></trkpt><trkpt lat="46.97831952072148" lon="-0.18272775520638984"><ele>88.5</ele><time>2026-04-14T17:31:15Z</time></trkpt><trkpt lat="46.978345935800895" lon="-0.18288249735672346"><ele>88.25</ele><time>2026-04-14T17:31:16Z</time></trkpt><trkpt lat="46.97835904127746" lon="-0.18303553406358863"><ele>88.0</ele><time>2026-04-14T17:31:17Z</time></trkpt><trkpt lat="46.978365711714126" lon="-0.1832057026510995"><ele>88.0</ele><time>2026-04-14T17:31:18Z</time></trkpt><trkpt lat="46.97835519301389" lon="-0.18338159720410863"><ele>88.0</ele><time>2026-04-14T17:31:19Z</time></trkpt><trkpt lat="46.978324030402085" lon="-0.18355746565647899"><ele>88.0</ele><time>2026-04-14T17:31:20Z</time></trkpt><trkpt lat="46.97826647672657" lon="-0.18373460242058576"><ele>88.0</ele><time>2026-04-14T17:31:21Z</time></trkpt><trkpt lat="46.97819124269476" lon="-0.18392722149820545"><ele>88.0</ele><time>2026-04-14T17:31:22Z</time></trkpt><trkpt lat="46.97811105548618" lon="-0.18411769589158736"><ele>88.0</ele><time>2026-04-14T17:31:23Z</time></trkpt><trkpt lat="46.97802726814837" lon="-0.1843253181809004"><ele>88.0</ele><time>2026-04-14T17:31:24Z</time></trkpt><trkpt lat="46.97794699969572" lon="-0.18452817284075854"><ele>88.0</ele><time>2026-04-14T17:31:25Z</time></trkpt><trkpt lat="46.977881930785784" lon="-0.1847205811592104"><ele>88.0</ele><time>2026-04-14T17:31:26Z</time></trkpt><trkpt lat="46.97784913340553" lon="-0.18491507024260911"><ele>88.0</ele><time>2026-04-14T17:31:27Z</time></trkpt><trkpt lat="46.97781354083758" lon="-0.1851033411248646"><ele>88.0</ele><time>2026-04-14T17:31:28Z</time></trkpt><trkpt lat="46.97778337295899" lon="-0.18529209472482866"><ele>88.25</ele><time>2026-04-14T17:31:29Z</time></trkpt><trkpt lat="46.97775619084202" lon="-0.18549211802570087"><ele>88.5</ele><time>2026-04-14T17:31:30Z</time></trkpt><trkpt lat="46.97774059786333" lon="-0.18569502107636385"><ele>88.75</ele><time>2026-04-14T17:31:31Z</time></trkpt><trkpt lat="46.977734398912666" lon="-0.18590198698606458"><ele>89.0</ele><time>2026-04-14T17:31:32Z</time></trkpt><trkpt lat="46.97771400910628" lon="-0.18611168437774894"><ele>89.0</ele><time>2026-04-14T17:31:33Z</time></trkpt><trkpt lat="46.97771501623432" lon="-0.1863426450224338"><ele>89.0</ele><time>2026-04-14T17:31:34Z</time></trkpt><trkpt lat="46.977715101506064" lon="-0.18659296416751892"><ele>89.0</ele><time>2026-04-14T17:31:35Z</time></trkpt><trkpt lat="46.977712667944395" lon="-0.18685201746788951"><ele>88.75</ele><time>2026-04-14T17:31:36Z</time></trkpt><trkpt lat="46.97772811464508" lon="-0.1870803715548787"><ele>88.5</ele><time>2026-04-14T17:31:37Z</time></trkpt><trkpt lat="46.9777304348268" lon="-0.1872864247995589"><ele>88.25</ele><time>2026-04-14T17:31:38Z</time></trkpt><trkpt lat="46.97773505371088" lon="-0.1874906659730501"><ele>88.0</ele><time>2026-04-14T17:31:39Z</time></trkpt><trkpt lat="46.97774322836502" lon="-0.18770349557760976"><ele>88.0</ele><time>2026-04-14T17:31:40Z</time></trkpt><trkpt lat="46.97775539234264" lon="-0.18791627765064361"><ele>88.0</ele><time>2026-04-14T17:31:41Z</time></trkpt><trkpt lat="46.97777129101583" lon="-0.18814321374720427"><ele>88.0</ele><time>2026-04-14T17:31:42Z</time></trkpt><trkpt lat="46.977793467543826" lon="-0.1883839722672944"><ele>88.33333333333333</ele><time>2026-04-14T17:31:43Z</time></trkpt><trkpt lat="46.97782111236511" lon="-0.18863005330956795"><ele>88.66666666666667</ele><time>2026-04-14T17:31:44Z</time></trkpt><trkpt lat="46.97785359544506" lon="-0.18885868436758255"><ele>89.0</ele><time>2026-04-14T17:31:45Z</time></trkpt><trkpt lat="46.97786360598784" lon="-0.18906398470079278"><ele>89.0</ele><time>2026-04-14T17:31:46Z</time></trkpt><trkpt lat="46.97788565256048" lon="-0.18923947409063252"><ele>89.0</ele><time>2026-04-14T17:31:47Z</time></trkpt><trkpt lat="46.97790527651494" lon="-0.1894003362858055"><ele>89.0</ele><time>2026-04-14T17:31:48Z</time></trkpt><trkpt lat="46.977910606770145" lon="-0.18957352923280663"><ele>89.0</ele><time>2026-04-14T17:31:49Z</time></trkpt><trkpt lat="46.97789944376899" lon="-0.18975848938064888"><ele>88.75</ele><time>2026-04-14T17:31:50Z</time></trkpt><trkpt lat="46.97787533164246" lon="-0.18995365011416332"><ele>88.5</ele><time>2026-04-14T17:31:51Z</time></trkpt><trkpt lat="46.977842296371726" lon="-0.1901553458157304"><ele>88.25</ele><time>2026-04-14T17:31:52Z</time></trkpt><trkpt lat="46.97782631029608" lon="-0.19037632406272734"><ele>88.0</ele><time>2026-04-14T17:31:53Z</time></trkpt><trkpt lat="46.97780432248741" lon="-0.19061482409584457"><ele>88.33333333333333</ele><time>2026-04-14T17:31:54Z</time></trkpt><trkpt lat="46.97778722197342" lon="-0.19086052485175276"><ele>88.66666666666667</ele><time>2026-04-14T17:31:55Z</time></trkpt><trkpt lat="46.977770173782204" lon="-0.19111302042018236"><ele>89.0</ele><time>2026-04-14T17:31:56Z</time></trkpt><trkpt lat="46.977732004819174" lon="-0.1913773091404323"><ele>89.33333333333334</ele><time>2026-04-14T17:31:57Z</time></trkpt><trkpt lat="46.97770717609741" lon="-0.19164732816398472"><ele>89.66666666666667</ele><time>2026-04-14T17:31:58Z</time></trkpt><trkpt lat="46.97770421748909" lon="-0.19193222761083803"><ele>90.0</ele><time>2026-04-14T17:31:59Z</time></trkpt><trkpt lat="46.97769367032176" lon="-0.19218411103474958"><ele>90.33333333333333</ele><time>2026-04-14T17:32:00Z</time></trkpt><trkpt lat="46.97768800017501" lon="-0.19240315585167933"><ele>90.66666666666666</ele><time>2026-04-14T17:32:01Z</time></trkpt><trkpt lat="46.97766724775422" lon="-0.19263576899193646"><ele>91.0</ele><time>2026-04-14T17:32:02Z</time></trkpt><trkpt lat="46.977667723399925" lon="-0.1928589657822899"><ele>91.0</ele><time>2026-04-14T17:32:03Z</time></trkpt><trkpt lat="46.97768395545064" lon="-0.19305334868922316"><ele>91.0</ele><time>2026-04-14T17:32:04Z</time></trkpt><trkpt lat="46.97768717806608" lon="-0.19322818701490646"><ele>91.0</ele><time>2026-04-14T17:32:05Z</time></trkpt><trkpt lat="46.9776917538673" lon="-0.19338065400473903"><ele>91.0</ele><time>2026-04-14T17:32:06Z</time></trkpt><trkpt lat="46.97768032330834" lon="-0.19351246951943502"><ele>91.0</ele><time>2026-04-14T17:32:07Z</time></trkpt><trkpt lat="46.97768647715939" lon="-0.1936307288764779"><ele>91.16666666666666</ele><time>2026-04-14T17:32:08Z</time></trkpt><trkpt lat="46.97769214301504" lon="-0.19372831039001046"><ele>91.33333333333333</ele><time>2026-04-14T17:32:09Z</time></trkpt><trkpt lat="46.97769455460034" lon="-0.19383089450377575"><ele>91.5</ele><time>2026-04-14T17:32:10Z</time></trkpt><trkpt lat="46.977693031779346" lon="-0.19394892311244044"><ele>91.66666666666667</ele><time>2026-04-14T17:32:11Z</time></trkpt><trkpt lat="46.97769291554596" lon="-0.19408781941076367"><ele>91.83333333333334</ele><time>2026-04-14T17:32:12Z</time></trkpt><trkpt lat="46.97769380395985" lon="-0.19420299752000214"><ele>92.0</ele><time>2026-04-14T17:32:13Z</time></trkpt><trkpt lat="46.9776857967875" lon="-0.1943729927904883"><ele>92.0</ele><time>2026-04-14T17:32:15Z</time></trkpt><trkpt lat="46.97766656940229" lon="-0.19447158797526837"><ele>92.0</ele><time>2026-04-14T17:32:16Z</time></trkpt><trkpt lat="46.97764458110765" lon="-0.19456890449661524"><ele>92.0</ele><time>2026-04-14T17:32:17Z</time></trkpt><trkpt lat="46.977615040737206" lon="-0.19474013862927322"><ele>92.0</ele><time>2026-04-14T17:32:19Z</time></trkpt><trkpt lat="46.977585618743156" lon="-0.1948731107909004"><ele>92.0</ele><time>2026-04-14T17:32:21Z</time></trkpt><trkpt lat="46.97758980214184" lon="-0.1950433315732851"><ele>92.33333333333334</ele><time>2026-04-14T17:32:23Z</time></trkpt><trkpt lat="46.97747581356195" lon="-0.1951053813060274"><ele>92.66666666666667</ele><time>2026-04-14T17:32:24Z</time></trkpt><trkpt lat="46.977418506519136" lon="-0.19516734581584538"><ele>93.0</ele><time>2026-04-14T17:32:25Z</time></trkpt><trkpt lat="46.977361742913494" lon="-0.1952379979979988"><ele>93.33333333333333</ele><time>2026-04-14T17:32:26Z</time></trkpt><trkpt lat="46.97731264052063" lon="-0.19531715244559344"><ele>93.66666666666666</ele><time>2026-04-14T17:32:27Z</time></trkpt><trkpt lat="46.97726649350067" lon="-0.1954041131652649"><ele>94.0</ele><time>2026-04-14T17:32:28Z</time></trkpt><trkpt lat="46.97722575714765" lon="-0.19547611452371727"><ele>94.0</ele><time>2026-04-14T17:32:29Z</time></trkpt><trkpt lat="46.977180504412814" lon="-0.19554601559568893"><ele>94.0</ele><time>2026-04-14T17:32:30Z</time></trkpt><trkpt lat="46.977126090702846" lon="-0.19567404225267987"><ele>94.0</ele><time>2026-04-14T17:32:32Z</time></trkpt><trkpt lat="46.97718187996548" lon="-0.195814122953441"><ele>94.0</ele><time>2026-04-14T17:32:34Z</time></trkpt><trkpt lat="46.977221131767216" lon="-0.1959000358814374"><ele>94.0</ele><time>2026-04-14T17:32:35Z</time></trkpt><trkpt lat="46.977279303546425" lon="-0.19597077751397485"><ele>94.0</ele><time>2026-04-14T17:32:36Z</time></trkpt><trkpt lat="46.977349882378526" lon="-0.19607607924871395"><ele>94.0</ele><time>2026-04-14T17:32:37Z</time></trkpt><trkpt lat="46.97740933620437" lon="-0.19616990436904214"><ele>94.0</ele><time>2026-04-14T17:32:38Z</time></trkpt><trkpt lat="46.97746671954522" lon="-0.19623408937679127"><ele>94.0</ele><time>2026-04-14T17:32:39Z</time></trkpt><trkpt lat="46.977514237604034" lon="-0.19630399575338403"><ele>94.0</ele><time>2026-04-14T17:32:40Z</time></trkpt><trkpt lat="46.97756802964941" lon="-0.19638313191424922"><ele>94.0</ele><time>2026-04-14T17:32:41Z</time></trkpt><trkpt lat="46.97762511656443" lon="-0.19646626817780438"><ele>94.0</ele><time>2026-04-14T17:32:42Z</time></trkpt><trkpt lat="46.97767553195728" lon="-0.19653985428744358"><ele>94.0</ele><time>2026-04-14T17:32:43Z</time></trkpt><trkpt lat="46.97774802659095" lon="-0.19664566716278278"><ele>94.0</ele><time>2026-04-14T17:32:45Z</time></trkpt><trkpt lat="46.97779188654469" lon="-0.19674728193353763"><ele>94.0</ele><time>2026-04-14T17:32:47Z</time></trkpt><trkpt lat="46.97785667178672" lon="-0.1968465253289266"><ele>94.0</ele><time>2026-04-14T17:32:49Z</time></trkpt><trkpt lat="46.977894831117595" lon="-0.19692323142611218"><ele>94.0</ele><time>2026-04-14T17:32:50Z</time></trkpt><trkpt lat="46.977919988777884" lon="-0.19700908178488008"><ele>94.0</ele><time>2026-04-14T17:32:51Z</time></trkpt><trkpt lat="46.97792248709045" lon="-0.19710208128325127"><ele>94.0</ele><time>2026-04-14T17:32:52Z</time></trkpt><trkpt lat="46.97790676461681" lon="-0.19726363976414027"><ele>94.0</ele><time>2026-04-14T17:32:54Z</time></trkpt><trkpt lat="46.977766275436466" lon="-0.19724347781547985"><ele>94.0</ele><time>2026-04-14T17:32:56Z</time></trkpt><trkpt lat="46.97766062528038" lon="-0.19734914135562434"><ele>94.0</ele><time>2026-04-14T17:32:58Z</time></trkpt><trkpt lat="46.97760970378233" lon="-0.1974126007435066"><ele>94.0</ele><time>2026-04-14T17:32:59Z</time></trkpt><trkpt lat="46.97756092800319" lon="-0.19747338607712162"><ele>94.4</ele><time>2026-04-14T17:33:00Z</time></trkpt><trkpt lat="46.977624706348266" lon="-0.19771132966618776"><ele>94.80000000000001</ele><time>2026-04-14T17:33:01Z</time></trkpt><trkpt lat="46.977520724796825" lon="-0.19779744350005257"><ele>95.19999999999999</ele><time>2026-04-14T17:33:03Z</time></trkpt><trkpt lat="46.97745224546279" lon="-0.19782857724436384"><ele>95.6</ele><time>2026-04-14T17:33:04Z</time></trkpt><trkpt lat="46.97738421880315" lon="-0.1978241003062204"><ele>96.0</ele><time>2026-04-14T17:33:05Z</time></trkpt><trkpt lat="46.97731448761674" lon="-0.19780379496456377"><ele>96.33333333333333</ele><time>2026-04-14T17:33:06Z</time></trkpt><trkpt lat="46.97721028107064" lon="-0.19777449840825578"><ele>96.66666666666666</ele><time>2026-04-14T17:33:08Z</time></trkpt><trkpt lat="46.97715580402174" lon="-0.19783858573894084"><ele>97.0</ele><time>2026-04-14T17:33:10Z</time></trkpt><trkpt lat="46.977139175782916" lon="-0.19793995968183106"><ele>97.33333333333333</ele><time>2026-04-14T17:33:12Z</time></trkpt><trkpt lat="46.977156257085554" lon="-0.19805977698748892"><ele>97.66666666666666</ele><time>2026-04-14T17:33:16Z</time></trkpt><trkpt lat="46.97714565720713" lon="-0.19817463016425424"><ele>98.0</ele><time>2026-04-14T17:33:18Z</time></trkpt><trkpt lat="46.977067470989304" lon="-0.19820885664523358"><ele>98.4</ele><time>2026-04-14T17:33:20Z</time></trkpt><trkpt lat="46.97694469867193" lon="-0.19821061981945168"><ele>98.80000000000001</ele><time>2026-04-14T17:33:22Z</time></trkpt><trkpt lat="46.97686585369471" lon="-0.19821503249962624"><ele>99.2</ele><time>2026-04-14T17:33:23Z</time></trkpt><trkpt lat="46.97675736936228" lon="-0.1982327570761559"><ele>99.6</ele><time>2026-04-14T17:33:25Z</time></trkpt><trkpt lat="46.97665336545082" lon="-0.19825725049298665"><ele>100.0</ele><time>2026-04-14T17:33:27Z</time></trkpt><trkpt lat="46.976561922158254" lon="-0.19826407981272745"><ele>100.4</ele><time>2026-04-14T17:33:29Z</time></trkpt><trkpt lat="46.97645209424446" lon="-0.19831087494593783"><ele>100.8</ele><time>2026-04-14T17:33:31Z</time></trkpt><trkpt lat="46.976379802312" lon="-0.19839838274149954"><ele>101.19999999999999</ele><time>2026-04-14T17:33:33Z</time></trkpt><trkpt lat="46.976411310550475" lon="-0.19853901060011883"><ele>101.6</ele><time>2026-04-14T17:33:34Z</time></trkpt><trkpt lat="46.976384312109644" lon="-0.19867907441529592"><ele>102.0</ele><time>2026-04-14T17:33:36Z</time></trkpt><trkpt lat="46.97638373137114" lon="-0.1987731900602126"><ele>102.0</ele><time>2026-04-14T17:33:37Z</time></trkpt><trkpt lat="46.9763904666035" lon="-0.1988817591990016"><ele>102.0</ele><time>2026-04-14T17:33:38Z</time></trkpt><trkpt lat="46.976392292412704" lon="-0.19900808064783185"><ele>102.0</ele><time>2026-04-14T17:33:39Z</time></trkpt><trkpt lat="46.976390013739085" lon="-0.19915189999920646"><ele>102.0</ele><time>2026-04-14T17:33:40Z</time></trkpt><trkpt lat="46.976388459774924" lon="-0.19930082479868547"><ele>102.0</ele><time>2026-04-14T17:33:41Z</time></trkpt><trkpt lat="46.97638842526021" lon="-0.19947220605147542"><ele>102.0</ele><time>2026-04-14T17:33:42Z</time></trkpt><trkpt lat="46.97638976188703" lon="-0.1996656038928656"><ele>102.0</ele><time>2026-04-14T17:33:43Z</time></trkpt><trkpt lat="46.97639022614797" lon="-0.19987688639641807"><ele>102.0</ele><time>2026-04-14T17:33:44Z</time></trkpt><trkpt lat="46.97639325341842" lon="-0.20007151511768173"><ele>102.0</ele><time>2026-04-14T17:33:45Z</time></trkpt><trkpt lat="46.97639374158688" lon="-0.2002349216319308"><ele>102.0</ele><time>2026-04-14T17:33:46Z</time></trkpt><trkpt lat="46.97638658202737" lon="-0.2003880032178774"><ele>102.0</ele><time>2026-04-14T17:33:47Z</time></trkpt><trkpt lat="46.97638338861829" lon="-0.2005469182559305"><ele>102.0</ele><time>2026-04-14T17:33:48Z</time></trkpt><trkpt lat="46.97638458204835" lon="-0.20069968471946367"><ele>102.0</ele><time>2026-04-14T17:33:49Z</time></trkpt><trkpt lat="46.97638437896632" lon="-0.20084817025262244"><ele>102.0</ele><time>2026-04-14T17:33:50Z</time></trkpt><trkpt lat="46.9764010551424" lon="-0.20099985061780784"><ele>102.39999999999999</ele><time>2026-04-14T17:33:51Z</time></trkpt><trkpt lat="46.9764017408442" lon="-0.20115486288275589"><ele>102.8</ele><time>2026-04-14T17:33:52Z</time></trkpt><trkpt lat="46.976401187742056" lon="-0.2012943085039707"><ele>103.2</ele><time>2026-04-14T17:33:53Z</time></trkpt><trkpt lat="46.97638508901289" lon="-0.20144531390081646"><ele>103.6</ele><time>2026-04-14T17:33:54Z</time></trkpt><trkpt lat="46.97640764674532" lon="-0.20156737993628257"><ele>104.0</ele><time>2026-04-14T17:33:55Z</time></trkpt><trkpt lat="46.976437657664384" lon="-0.2016914738920686"><ele>103.80000000000001</ele><time>2026-04-14T17:33:56Z</time></trkpt><trkpt lat="46.97646762295864" lon="-0.2018208134664162"><ele>103.60000000000001</ele><time>2026-04-14T17:33:57Z</time></trkpt><trkpt lat="46.976501854042475" lon="-0.20194834520542806"><ele>103.4</ele><time>2026-04-14T17:33:58Z</time></trkpt><trkpt lat="46.97652975917534" lon="-0.20208323370838358"><ele>103.2</ele><time>2026-04-14T17:33:59Z</time></trkpt><trkpt lat="46.976548489999416" lon="-0.20221888832141047"><ele>103.0</ele><time>2026-04-14T17:34:00Z</time></trkpt><trkpt lat="46.976566763801074" lon="-0.20233669539345658"><ele>103.0</ele><time>2026-04-14T17:34:01Z</time></trkpt><trkpt lat="46.976586212739356" lon="-0.2024521845466101"><ele>103.0</ele><time>2026-04-14T17:34:02Z</time></trkpt><trkpt lat="46.97662933215651" lon="-0.20257751509909136"><ele>103.0</ele><time>2026-04-14T17:34:03Z</time></trkpt><trkpt lat="46.9766454646596" lon="-0.20272049295530753"><ele>103.0</ele><time>2026-04-14T17:34:04Z</time></trkpt><trkpt lat="46.976679527207125" lon="-0.20286689580575457"><ele>103.0</ele><time>2026-04-14T17:34:05Z</time></trkpt><trkpt lat="46.97670198344505" lon="-0.20300281569759315"><ele>102.83333333333334</ele><time>2026-04-14T17:34:06Z</time></trkpt><trkpt lat="46.976719316597766" lon="-0.20313493320283374"><ele>102.66666666666667</ele><time>2026-04-14T17:34:07Z</time></trkpt><trkpt lat="46.97673461985177" lon="-0.20325914447378596"><ele>102.5</ele><time>2026-04-14T17:34:08Z</time></trkpt><trkpt lat="46.97675563377947" lon="-0.20337558531509112"><ele>102.33333333333334</ele><time>2026-04-14T17:34:09Z</time></trkpt><trkpt lat="46.97676977978058" lon="-0.2034793006317692"><ele>102.16666666666667</ele><time>2026-04-14T17:34:10Z</time></trkpt><trkpt lat="46.97678163123171" lon="-0.2035895504066849"><ele>102.0</ele><time>2026-04-14T17:34:11Z</time></trkpt><trkpt lat="46.97679948923773" lon="-0.20370582888816302"><ele>102.0</ele><time>2026-04-14T17:34:12Z</time></trkpt><trkpt lat="46.9768201066896" lon="-0.2038161228257249"><ele>102.0</ele><time>2026-04-14T17:34:13Z</time></trkpt><trkpt lat="46.97684168745284" lon="-0.20392714312865545"><ele>102.0</ele><time>2026-04-14T17:34:14Z</time></trkpt><trkpt lat="46.97686645809338" lon="-0.2040402697914977"><ele>102.0</ele><time>2026-04-14T17:34:15Z</time></trkpt><trkpt lat="46.9768912858339" lon="-0.2041536459200747"><ele>102.0</ele><time>2026-04-14T17:34:16Z</time></trkpt><trkpt lat="46.976927554954656" lon="-0.20426510463520414"><ele>102.0</ele><time>2026-04-14T17:34:17Z</time></trkpt><trkpt lat="46.976950776662825" lon="-0.20436867317454957"><ele>102.0</ele><time>2026-04-14T17:34:18Z</time></trkpt><trkpt lat="46.976960309216004" lon="-0.2044699313023958"><ele>102.0</ele><time>2026-04-14T17:34:19Z</time></trkpt><trkpt lat="46.97698154515319" lon="-0.20455964747925584"><ele>102.0</ele><time>2026-04-14T17:34:20Z</time></trkpt><trkpt lat="46.97701575138537" lon="-0.20464780898145185"><ele>102.0</ele><time>2026-04-14T17:34:21Z</time></trkpt><trkpt lat="46.97703917167663" lon="-0.2047479222000571"><ele>102.0</ele><time>2026-04-14T17:34:22Z</time></trkpt><trkpt lat="46.97706128227704" lon="-0.20485004117154731"><ele>102.0</ele><time>2026-04-14T17:34:23Z</time></trkpt><trkpt lat="46.97709084344429" lon="-0.20498657108295518"><ele>102.0</ele><time>2026-04-14T17:34:25Z</time></trkpt><trkpt lat="46.97711168116778" lon="-0.20508281130132427"><ele>102.0</ele><time>2026-04-14T17:34:27Z</time></trkpt><trkpt lat="46.977131404852074" lon="-0.205173906217776"><ele>102.0</ele><time>2026-04-14T17:34:32Z</time></trkpt><trkpt lat="46.97703445948613" lon="-0.2052083532365758"><ele>102.0</ele><time>2026-04-14T17:34:55Z</time></trkpt><trkpt lat="46.97696386922676" lon="-0.2053073811138173"><ele>102.0</ele><time>2026-04-14T17:35:30Z</time></trkpt><trkpt lat="46.97700271958761" lon="-0.2052292075412291"><ele>102.0</ele><time>2026-04-14T17:36:54Z</time></trkpt><trkpt lat="46.97695361128876" lon="-0.2052898753288498"><ele>102.0</ele><time>2026-04-14T17:38:13Z</time></trkpt><trkpt lat="46.976907969915416" lon="-0.2053648036152651"><ele>102.0</ele><time>2026-04-14T17:38:19Z</time></trkpt><trkpt lat="46.97689673918048" lon="-0.2054600908022085"><ele>102.0</ele><time>2026-04-14T17:38:23Z</time></trkpt><trkpt lat="46.976947329038744" lon="-0.20537950833952465"><ele>102.0</ele><time>2026-04-14T17:39:04Z</time></trkpt><trkpt lat="46.976960476273476" lon="-0.2052728447878013"><ele>102.0</ele><time>2026-04-14T17:39:16Z</time></trkpt><trkpt lat="46.97696859616955" lon="-0.20543433119194984"><ele>102.0</ele><time>2026-04-14T17:40:53.069Z</time></trkpt><trkpt lat="46.976976255977476" lon="-0.2053241986128151"><ele>102.0</ele><time>2026-04-14T17:41:04Z</time></trkpt></trkseg></trk></gpx>